sensor_id;sensor_type;location;lat;lon;timestamp;P1;durP1;ratioP1;P2;durP2;ratioP2
53411;SDS011;39307;52.870;13.660;2023-06-14T00:02:09;6.32;;;3.15;;
53411;SDS011;39307;52.870;13.660;2023-06-14T00:04:35;5.45;;;2.90;;
53411;SDS011;39307;52.870;13.660;2023-06-14T00:07:02;5.90;;;3.10;;
53411;SDS011;39307;52.870;13.660;2023-06-14T00:09:28;6.40;;;2.88;;
53411;SDS011;39307;52.870;13.660;2023-06-14T00:11:54;5.15;;;2.65;;
53411;SDS011;39307;52.870;13.660;2023-06-14T00:14:21;5.35;;;2.60;;
53411;SDS011;39307;52.870;13.660;2023-06-14T00:16:47;5.38;;;2.75;;
53411;SDS011;39307;52.870;13.660;2023-06-14T00:19:13;6.68;;;3.00;;
53411;SDS011;39307;52.870;13.660;2023-06-14T00:21:40;5.35;;;2.80;;
53411;SDS011;39307;52.870;13.660;2023-06-14T00:24:07;6.28;;;2.90;;
53411;SDS011;39307;52.870;13.660;2023-06-14T00:26:33;6.68;;;2.85;;
53411;SDS011;39307;52.870;13.660;2023-06-14T00:28:59;5.88;;;2.58;;
53411;SDS011;39307;52.870;13.660;2023-06-14T00:31:25;5.75;;;2.78;;
53411;SDS011;39307;52.870;13.660;2023-06-14T00:33:52;6.50;;;2.50;;
53411;SDS011;39307;52.870;13.660;2023-06-14T00:36:18;5.07;;;2.92;;
53411;SDS011;39307;52.870;13.660;2023-06-14T00:38:44;5.60;;;2.58;;
53411;SDS011;39307;52.870;13.660;2023-06-14T00:41:11;5.05;;;2.88;;
53411;SDS011;39307;52.870;13.660;2023-06-14T00:43:37;6.10;;;2.90;;
53411;SDS011;39307;52.870;13.660;2023-06-14T00:46:03;5.93;;;3.00;;
53411;SDS011;39307;52.870;13.660;2023-06-14T00:48:30;7.03;;;3.20;;
53411;SDS011;39307;52.870;13.660;2023-06-14T00:50:57;6.10;;;3.00;;
53411;SDS011;39307;52.870;13.660;2023-06-14T00:53:25;4.85;;;2.80;;
53411;SDS011;39307;52.870;13.660;2023-06-14T00:55:52;5.93;;;3.30;;
53411;SDS011;39307;52.870;13.660;2023-06-14T00:58:19;7.53;;;3.25;;
53411;SDS011;39307;52.870;13.660;2023-06-14T01:00:48;5.22;;;3.10;;
53411;SDS011;39307;52.870;13.660;2023-06-14T01:03:14;5.85;;;3.28;;
53411;SDS011;39307;52.870;13.660;2023-06-14T01:05:40;6.75;;;3.28;;
53411;SDS011;39307;52.870;13.660;2023-06-14T01:08:22;7.22;;;3.20;;
53411;SDS011;39307;52.870;13.660;2023-06-14T01:11:01;6.68;;;3.33;;
53411;SDS011;39307;52.870;13.660;2023-06-14T01:13:45;6.20;;;3.20;;
53411;SDS011;39307;52.870;13.660;2023-06-14T01:16:12;8.27;;;3.30;;
53411;SDS011;39307;52.870;13.660;2023-06-14T01:18:39;7.93;;;3.38;;
53411;SDS011;39307;52.870;13.660;2023-06-14T01:21:19;6.53;;;3.13;;
53411;SDS011;39307;52.870;13.660;2023-06-14T01:23:49;7.47;;;3.28;;
53411;SDS011;39307;52.870;13.660;2023-06-14T01:26:16;6.68;;;3.35;;
53411;SDS011;39307;52.870;13.660;2023-06-14T01:28:42;6.97;;;3.33;;
53411;SDS011;39307;52.870;13.660;2023-06-14T01:31:08;5.78;;;3.20;;
53411;SDS011;39307;52.870;13.660;2023-06-14T01:33:34;9.75;;;3.72;;
53411;SDS011;39307;52.870;13.660;2023-06-14T01:36:02;6.88;;;3.35;;
53411;SDS011;39307;52.870;13.660;2023-06-14T01:38:30;8.82;;;3.40;;
53411;SDS011;39307;52.870;13.660;2023-06-14T01:40:57;11.40;;;3.60;;
53411;SDS011;39307;52.870;13.660;2023-06-14T01:43:24;6.60;;;3.70;;
53411;SDS011;39307;52.870;13.660;2023-06-14T01:45:51;7.22;;;3.53;;
53411;SDS011;39307;52.870;13.660;2023-06-14T01:48:21;6.35;;;3.33;;
53411;SDS011;39307;52.870;13.660;2023-06-14T01:50:50;5.70;;;3.53;;
53411;SDS011;39307;52.870;13.660;2023-06-14T01:53:17;5.30;;;3.20;;
53411;SDS011;39307;52.870;13.660;2023-06-14T01:55:44;7.85;;;3.53;;
53411;SDS011;39307;52.870;13.660;2023-06-14T01:58:10;7.03;;;3.47;;
53411;SDS011;39307;52.870;13.660;2023-06-14T02:00:36;6.15;;;3.50;;
53411;SDS011;39307;52.870;13.660;2023-06-14T02:03:03;6.97;;;3.75;;
53411;SDS011;39307;52.870;13.660;2023-06-14T02:05:29;7.32;;;3.50;;
53411;SDS011;39307;52.870;13.660;2023-06-14T02:07:56;7.20;;;3.70;;
53411;SDS011;39307;52.870;13.660;2023-06-14T02:10:22;7.38;;;3.67;;
53411;SDS011;39307;52.870;13.660;2023-06-14T02:12:48;6.43;;;3.17;;
53411;SDS011;39307;52.870;13.660;2023-06-14T02:15:14;6.05;;;3.33;;
53411;SDS011;39307;52.870;13.660;2023-06-14T02:17:41;7.10;;;3.53;;
53411;SDS011;39307;52.870;13.660;2023-06-14T02:20:07;6.07;;;3.53;;
53411;SDS011;39307;52.870;13.660;2023-06-14T02:22:34;6.50;;;3.58;;
53411;SDS011;39307;52.870;13.660;2023-06-14T02:25:00;5.80;;;3.23;;
53411;SDS011;39307;52.870;13.660;2023-06-14T02:27:26;6.77;;;3.70;;
53411;SDS011;39307;52.870;13.660;2023-06-14T02:29:53;7.13;;;3.83;;
53411;SDS011;39307;52.870;13.660;2023-06-14T02:32:19;8.20;;;3.95;;
53411;SDS011;39307;52.870;13.660;2023-06-14T02:34:45;7.10;;;3.47;;
53411;SDS011;39307;52.870;13.660;2023-06-14T02:37:11;4.82;;;3.00;;
53411;SDS011;39307;52.870;13.660;2023-06-14T02:39:37;6.57;;;3.75;;
53411;SDS011;39307;52.870;13.660;2023-06-14T02:42:04;5.90;;;3.42;;
53411;SDS011;39307;52.870;13.660;2023-06-14T02:44:30;7.07;;;3.78;;
53411;SDS011;39307;52.870;13.660;2023-06-14T02:46:56;7.63;;;3.47;;
53411;SDS011;39307;52.870;13.660;2023-06-14T02:49:23;5.85;;;3.53;;
53411;SDS011;39307;52.870;13.660;2023-06-14T02:51:49;6.75;;;4.07;;
53411;SDS011;39307;52.870;13.660;2023-06-14T02:54:15;7.90;;;3.85;;
53411;SDS011;39307;52.870;13.660;2023-06-14T02:56:41;6.40;;;3.60;;
53411;SDS011;39307;52.870;13.660;2023-06-14T02:59:08;7.45;;;3.92;;
53411;SDS011;39307;52.870;13.660;2023-06-14T03:01:34;7.93;;;3.97;;
53411;SDS011;39307;52.870;13.660;2023-06-14T03:04:01;7.38;;;3.50;;
53411;SDS011;39307;52.870;13.660;2023-06-14T03:06:28;6.72;;;3.80;;
53411;SDS011;39307;52.870;13.660;2023-06-14T03:08:55;6.55;;;3.75;;
53411;SDS011;39307;52.870;13.660;2023-06-14T03:11:24;8.95;;;3.92;;
53411;SDS011;39307;52.870;13.660;2023-06-14T03:13:51;6.40;;;3.70;;
53411;SDS011;39307;52.870;13.660;2023-06-14T03:16:18;9.27;;;3.92;;
53411;SDS011;39307;52.870;13.660;2023-06-14T03:18:45;7.38;;;3.95;;
53411;SDS011;39307;52.870;13.660;2023-06-14T03:21:11;8.00;;;3.75;;
53411;SDS011;39307;52.870;13.660;2023-06-14T03:23:38;6.65;;;3.67;;
53411;SDS011;39307;52.870;13.660;2023-06-14T03:26:04;7.10;;;3.92;;
53411;SDS011;39307;52.870;13.660;2023-06-14T03:28:30;6.28;;;3.85;;
53411;SDS011;39307;52.870;13.660;2023-06-14T03:30:57;6.50;;;3.58;;
53411;SDS011;39307;52.870;13.660;2023-06-14T03:33:23;6.35;;;3.55;;
53411;SDS011;39307;52.870;13.660;2023-06-14T03:35:49;7.68;;;3.53;;
53411;SDS011;39307;52.870;13.660;2023-06-14T03:38:15;6.65;;;3.55;;
53411;SDS011;39307;52.870;13.660;2023-06-14T03:40:42;6.00;;;3.60;;
53411;SDS011;39307;52.870;13.660;2023-06-14T03:43:08;7.85;;;3.53;;
53411;SDS011;39307;52.870;13.660;2023-06-14T03:45:34;7.45;;;3.63;;
53411;SDS011;39307;52.870;13.660;2023-06-14T03:48:01;7.28;;;3.50;;
53411;SDS011;39307;52.870;13.660;2023-06-14T03:50:28;7.45;;;3.83;;
53411;SDS011;39307;52.870;13.660;2023-06-14T03:52:55;6.65;;;3.70;;
53411;SDS011;39307;52.870;13.660;2023-06-14T03:55:21;6.28;;;3.88;;
53411;SDS011;39307;52.870;13.660;2023-06-14T03:57:47;6.72;;;3.70;;
53411;SDS011;39307;52.870;13.660;2023-06-14T04:00:13;6.57;;;3.97;;
53411;SDS011;39307;52.870;13.660;2023-06-14T04:02:40;5.72;;;3.70;;
53411;SDS011;39307;52.870;13.660;2023-06-14T04:05:06;9.05;;;3.83;;
53411;SDS011;39307;52.870;13.660;2023-06-14T04:07:32;6.18;;;3.70;;
53411;SDS011;39307;52.870;13.660;2023-06-14T04:09:59;7.28;;;3.67;;
53411;SDS011;39307;52.870;13.660;2023-06-14T04:12:25;7.35;;;3.88;;
53411;SDS011;39307;52.870;13.660;2023-06-14T04:14:51;7.38;;;3.75;;
53411;SDS011;39307;52.870;13.660;2023-06-14T04:17:17;7.38;;;4.10;;
53411;SDS011;39307;52.870;13.660;2023-06-14T04:19:44;7.43;;;3.45;;
53411;SDS011;39307;52.870;13.660;2023-06-14T04:22:10;6.20;;;3.42;;
53411;SDS011;39307;52.870;13.660;2023-06-14T04:24:36;6.05;;;3.38;;
53411;SDS011;39307;52.870;13.660;2023-06-14T04:27:04;6.93;;;3.75;;
53411;SDS011;39307;52.870;13.660;2023-06-14T04:29:30;6.65;;;3.63;;
53411;SDS011;39307;52.870;13.660;2023-06-14T04:31:56;8.02;;;4.30;;
53411;SDS011;39307;52.870;13.660;2023-06-14T04:34:22;8.68;;;4.38;;
53411;SDS011;39307;52.870;13.660;2023-06-14T04:36:49;7.60;;;4.30;;
53411;SDS011;39307;52.870;13.660;2023-06-14T04:39:18;8.02;;;4.30;;
53411;SDS011;39307;52.870;13.660;2023-06-14T04:41:45;8.88;;;4.13;;
53411;SDS011;39307;52.870;13.660;2023-06-14T04:44:12;8.30;;;4.45;;
53411;SDS011;39307;52.870;13.660;2023-06-14T04:46:38;8.30;;;4.10;;
53411;SDS011;39307;52.870;13.660;2023-06-14T04:49:05;8.60;;;4.30;;
53411;SDS011;39307;52.870;13.660;2023-06-14T04:51:31;9.70;;;4.90;;
53411;SDS011;39307;52.870;13.660;2023-06-14T04:53:57;9.43;;;4.50;;
53411;SDS011;39307;52.870;13.660;2023-06-14T04:56:24;9.10;;;4.47;;
53411;SDS011;39307;52.870;13.660;2023-06-14T04:58:50;7.10;;;4.00;;
53411;SDS011;39307;52.870;13.660;2023-06-14T05:01:17;8.77;;;3.90;;
53411;SDS011;39307;52.870;13.660;2023-06-14T05:03:43;7.63;;;4.17;;
53411;SDS011;39307;52.870;13.660;2023-06-14T05:06:09;8.40;;;4.25;;
53411;SDS011;39307;52.870;13.660;2023-06-14T05:08:35;7.00;;;4.20;;
53411;SDS011;39307;52.870;13.660;2023-06-14T05:11:02;8.23;;;4.10;;
53411;SDS011;39307;52.870;13.660;2023-06-14T05:13:28;7.65;;;4.22;;
53411;SDS011;39307;52.870;13.660;2023-06-14T05:15:54;9.43;;;4.60;;
53411;SDS011;39307;52.870;13.660;2023-06-14T05:18:21;8.57;;;4.30;;
53411;SDS011;39307;52.870;13.660;2023-06-14T05:20:47;8.45;;;4.03;;
53411;SDS011;39307;52.870;13.660;2023-06-14T05:23:13;8.32;;;4.47;;
53411;SDS011;39307;52.870;13.660;2023-06-14T05:25:39;7.53;;;4.03;;
53411;SDS011;39307;52.870;13.660;2023-06-14T05:28:07;7.43;;;4.07;;
53411;SDS011;39307;52.870;13.660;2023-06-14T05:30:33;7.07;;;4.00;;
53411;SDS011;39307;52.870;13.660;2023-06-14T05:32:59;7.90;;;4.07;;
53411;SDS011;39307;52.870;13.660;2023-06-14T05:35:26;9.10;;;4.27;;
53411;SDS011;39307;52.870;13.660;2023-06-14T05:37:52;8.20;;;3.73;;
53411;SDS011;39307;52.870;13.660;2023-06-14T05:40:18;7.95;;;4.30;;
53411;SDS011;39307;52.870;13.660;2023-06-14T05:42:45;7.70;;;4.05;;
53411;SDS011;39307;52.870;13.660;2023-06-14T05:45:12;6.82;;;3.90;;
53411;SDS011;39307;52.870;13.660;2023-06-14T05:47:38;8.45;;;4.05;;
53411;SDS011;39307;52.870;13.660;2023-06-14T05:50:05;9.38;;;3.67;;
53411;SDS011;39307;52.870;13.660;2023-06-14T05:52:32;8.63;;;3.95;;
53411;SDS011;39307;52.870;13.660;2023-06-14T05:54:59;9.88;;;4.07;;
53411;SDS011;39307;52.870;13.660;2023-06-14T05:57:25;8.15;;;3.85;;
53411;SDS011;39307;52.870;13.660;2023-06-14T05:59:51;8.80;;;4.05;;
53411;SDS011;39307;52.870;13.660;2023-06-14T06:02:18;9.52;;;3.90;;
53411;SDS011;39307;52.870;13.660;2023-06-14T06:04:44;6.32;;;3.50;;
53411;SDS011;39307;52.870;13.660;2023-06-14T06:07:10;7.32;;;3.95;;
53411;SDS011;39307;52.870;13.660;2023-06-14T06:09:37;10.70;;;4.18;;
53411;SDS011;39307;52.870;13.660;2023-06-14T06:12:05;6.47;;;3.67;;
53411;SDS011;39307;52.870;13.660;2023-06-14T06:14:32;9.90;;;3.80;;
53411;SDS011;39307;52.870;13.660;2023-06-14T06:16:58;7.43;;;3.60;;
53411;SDS011;39307;52.870;13.660;2023-06-14T06:19:24;8.35;;;4.00;;
53411;SDS011;39307;52.870;13.660;2023-06-14T06:21:51;8.27;;;3.60;;
53411;SDS011;39307;52.870;13.660;2023-06-14T06:24:17;8.50;;;3.80;;
53411;SDS011;39307;52.870;13.660;2023-06-14T06:26:43;6.90;;;3.83;;
53411;SDS011;39307;52.870;13.660;2023-06-14T06:29:10;8.75;;;4.00;;
53411;SDS011;39307;52.870;13.660;2023-06-14T06:31:37;8.45;;;4.15;;
53411;SDS011;39307;52.870;13.660;2023-06-14T06:34:04;8.38;;;3.58;;
53411;SDS011;39307;52.870;13.660;2023-06-14T06:36:31;10.93;;;4.20;;
53411;SDS011;39307;52.870;13.660;2023-06-14T06:38:57;7.50;;;3.78;;
53411;SDS011;39307;52.870;13.660;2023-06-14T06:41:24;10.53;;;3.60;;
53411;SDS011;39307;52.870;13.660;2023-06-14T06:43:50;11.83;;;4.10;;
53411;SDS011;39307;52.870;13.660;2023-06-14T06:46:16;12.37;;;4.10;;
53411;SDS011;39307;52.870;13.660;2023-06-14T06:48:42;7.33;;;3.70;;
53411;SDS011;39307;52.870;13.660;2023-06-14T06:51:09;8.38;;;3.67;;
53411;SDS011;39307;52.870;13.660;2023-06-14T06:53:35;7.30;;;3.63;;
53411;SDS011;39307;52.870;13.660;2023-06-14T06:56:01;7.10;;;3.65;;
53411;SDS011;39307;52.870;13.660;2023-06-14T06:58:28;7.88;;;3.70;;
53411;SDS011;39307;52.870;13.660;2023-06-14T07:00:54;7.95;;;3.85;;
53411;SDS011;39307;52.870;13.660;2023-06-14T07:03:20;7.78;;;3.90;;
53411;SDS011;39307;52.870;13.660;2023-06-14T07:05:46;9.02;;;3.88;;
53411;SDS011;39307;52.870;13.660;2023-06-14T07:08:13;8.93;;;3.60;;
53411;SDS011;39307;52.870;13.660;2023-06-14T07:10:39;10.25;;;3.60;;
53411;SDS011;39307;52.870;13.660;2023-06-14T07:13:05;9.57;;;4.30;;
53411;SDS011;39307;52.870;13.660;2023-06-14T07:15:32;6.93;;;3.45;;
53411;SDS011;39307;52.870;13.660;2023-06-14T07:17:58;7.60;;;3.75;;
53411;SDS011;39307;52.870;13.660;2023-06-14T07:20:24;7.35;;;3.55;;
53411;SDS011;39307;52.870;13.660;2023-06-14T07:22:50;8.40;;;3.67;;
53411;SDS011;39307;52.870;13.660;2023-06-14T07:25:16;8.27;;;3.45;;
53411;SDS011;39307;52.870;13.660;2023-06-14T07:27:43;7.78;;;3.40;;
53411;SDS011;39307;52.870;13.660;2023-06-14T07:30:10;8.82;;;3.95;;
53411;SDS011;39307;52.870;13.660;2023-06-14T07:32:37;8.48;;;3.78;;
53411;SDS011;39307;52.870;13.660;2023-06-14T07:35:03;8.00;;;3.72;;
53411;SDS011;39307;52.870;13.660;2023-06-14T07:37:30;10.18;;;4.10;;
53411;SDS011;39307;52.870;13.660;2023-06-14T07:39:56;11.47;;;4.27;;
53411;SDS011;39307;52.870;13.660;2023-06-14T07:42:22;7.63;;;3.70;;
53411;SDS011;39307;52.870;13.660;2023-06-14T07:44:49;8.55;;;3.90;;
53411;SDS011;39307;52.870;13.660;2023-06-14T07:47:15;9.25;;;3.90;;
53411;SDS011;39307;52.870;13.660;2023-06-14T07:49:41;8.98;;;3.60;;
53411;SDS011;39307;52.870;13.660;2023-06-14T07:52:07;7.75;;;3.80;;
53411;SDS011;39307;52.870;13.660;2023-06-14T07:54:33;10.13;;;3.97;;
53411;SDS011;39307;52.870;13.660;2023-06-14T07:57:00;8.40;;;3.95;;
53411;SDS011;39307;52.870;13.660;2023-06-14T07:59:26;9.13;;;3.55;;
53411;SDS011;39307;52.870;13.660;2023-06-14T08:01:52;11.25;;;3.70;;
53411;SDS011;39307;52.870;13.660;2023-06-14T08:04:19;9.75;;;4.20;;
53411;SDS011;39307;52.870;13.660;2023-06-14T08:06:45;8.38;;;3.85;;
53411;SDS011;39307;52.870;13.660;2023-06-14T08:09:12;8.18;;;3.95;;
53411;SDS011;39307;52.870;13.660;2023-06-14T08:11:39;7.20;;;4.13;;
53411;SDS011;39307;52.870;13.660;2023-06-14T08:14:05;9.07;;;3.70;;
53411;SDS011;39307;52.870;13.660;2023-06-14T08:16:32;8.65;;;3.83;;
53411;SDS011;39307;52.870;13.660;2023-06-14T08:18:58;9.45;;;4.22;;
53411;SDS011;39307;52.870;13.660;2023-06-14T08:21:24;8.48;;;4.13;;
53411;SDS011;39307;52.870;13.660;2023-06-14T08:23:50;8.65;;;4.13;;
53411;SDS011;39307;52.870;13.660;2023-06-14T08:26:16;9.38;;;4.50;;
53411;SDS011;39307;52.870;13.660;2023-06-14T08:28:43;12.50;;;4.35;;
53411;SDS011;39307;52.870;13.660;2023-06-14T08:31:09;8.18;;;4.53;;
53411;SDS011;39307;52.870;13.660;2023-06-14T08:33:35;7.78;;;4.28;;
53411;SDS011;39307;52.870;13.660;2023-06-14T08:36:01;13.50;;;5.00;;
53411;SDS011;39307;52.870;13.660;2023-06-14T08:38:27;10.10;;;4.20;;
53411;SDS011;39307;52.870;13.660;2023-06-14T08:40:56;10.05;;;4.40;;
53411;SDS011;39307;52.870;13.660;2023-06-14T08:43:24;8.45;;;4.45;;
53411;SDS011;39307;52.870;13.660;2023-06-14T08:45:52;8.98;;;4.22;;
53411;SDS011;39307;52.870;13.660;2023-06-14T08:48:25;10.10;;;4.20;;
53411;SDS011;39307;52.870;13.660;2023-06-14T08:50:54;8.15;;;4.07;;
53411;SDS011;39307;52.870;13.660;2023-06-14T08:53:25;8.35;;;4.18;;
53411;SDS011;39307;52.870;13.660;2023-06-14T08:55:52;8.38;;;4.57;;
53411;SDS011;39307;52.870;13.660;2023-06-14T08:58:18;10.73;;;4.32;;
53411;SDS011;39307;52.870;13.660;2023-06-14T09:00:44;9.10;;;4.60;;
53411;SDS011;39307;52.870;13.660;2023-06-14T09:03:11;9.98;;;4.10;;
53411;SDS011;39307;52.870;13.660;2023-06-14T09:05:37;11.30;;;4.40;;
53411;SDS011;39307;52.870;13.660;2023-06-14T09:08:04;9.05;;;4.40;;
53411;SDS011;39307;52.870;13.660;2023-06-14T09:10:30;7.80;;;4.18;;
53411;SDS011;39307;52.870;13.660;2023-06-14T09:12:57;8.68;;;4.18;;
53411;SDS011;39307;52.870;13.660;2023-06-14T09:15:23;8.77;;;4.20;;
53411;SDS011;39307;52.870;13.660;2023-06-14T09:17:50;8.25;;;3.88;;
53411;SDS011;39307;52.870;13.660;2023-06-14T09:20:16;8.50;;;4.28;;
53411;SDS011;39307;52.870;13.660;2023-06-14T09:22:43;14.43;;;4.45;;
53411;SDS011;39307;52.870;13.660;2023-06-14T09:25:09;9.47;;;4.43;;
53411;SDS011;39307;52.870;13.660;2023-06-14T09:27:35;8.43;;;4.18;;
53411;SDS011;39307;52.870;13.660;2023-06-14T09:30:02;9.33;;;3.90;;
53411;SDS011;39307;52.870;13.660;2023-06-14T09:32:29;11.60;;;4.03;;
53411;SDS011;39307;52.870;13.660;2023-06-14T09:34:55;8.13;;;3.50;;
53411;SDS011;39307;52.870;13.660;2023-06-14T09:37:28;9.15;;;3.80;;
53411;SDS011;39307;52.870;13.660;2023-06-14T09:39:56;8.23;;;3.85;;
53411;SDS011;39307;52.870;13.660;2023-06-14T09:42:22;8.98;;;4.05;;
53411;SDS011;39307;52.870;13.660;2023-06-14T09:44:49;6.63;;;3.60;;
53411;SDS011;39307;52.870;13.660;2023-06-14T09:47:15;9.93;;;4.00;;
53411;SDS011;39307;52.870;13.660;2023-06-14T09:49:42;10.32;;;3.70;;
53411;SDS011;39307;52.870;13.660;2023-06-14T09:52:15;6.93;;;3.53;;
53411;SDS011;39307;52.870;13.660;2023-06-14T09:54:44;8.50;;;3.70;;
53411;SDS011;39307;52.870;13.660;2023-06-14T09:57:12;12.03;;;3.80;;
53411;SDS011;39307;52.870;13.660;2023-06-14T09:59:46;7.75;;;3.53;;
53411;SDS011;39307;52.870;13.660;2023-06-14T10:02:26;10.87;;;3.70;;
53411;SDS011;39307;52.870;13.660;2023-06-14T10:05:03;7.60;;;3.90;;
53411;SDS011;39307;52.870;13.660;2023-06-14T10:07:35;7.93;;;3.33;;
53411;SDS011;39307;52.870;13.660;2023-06-14T10:10:14;35.30;;;6.30;;
53411;SDS011;39307;52.870;13.660;2023-06-14T10:12:40;6.63;;;3.58;;
53411;SDS011;39307;52.870;13.660;2023-06-14T10:15:09;6.85;;;3.28;;
53411;SDS011;39307;52.870;13.660;2023-06-14T10:20:58;8.52;;;3.60;;
53411;SDS011;39307;52.870;13.660;2023-06-14T10:23:36;10.40;;;3.63;;
53411;SDS011;39307;52.870;13.660;2023-06-14T10:26:07;9.45;;;3.60;;
53411;SDS011;39307;52.870;13.660;2023-06-14T10:28:36;9.15;;;3.40;;
53411;SDS011;39307;52.870;13.660;2023-06-14T10:31:04;8.70;;;3.50;;
53411;SDS011;39307;52.870;13.660;2023-06-14T10:33:32;8.45;;;3.30;;
53411;SDS011;39307;52.870;13.660;2023-06-14T10:36:08;7.22;;;3.22;;
53411;SDS011;39307;52.870;13.660;2023-06-14T10:38:36;7.97;;;3.35;;
53411;SDS011;39307;52.870;13.660;2023-06-14T10:41:03;9.13;;;3.40;;
53411;SDS011;39307;52.870;13.660;2023-06-14T10:43:31;7.25;;;3.35;;
53411;SDS011;39307;52.870;13.660;2023-06-14T10:48:43;7.72;;;3.30;;
53411;SDS011;39307;52.870;13.660;2023-06-14T10:51:20;7.07;;;3.20;;
53411;SDS011;39307;52.870;13.660;2023-06-14T10:53:49;6.40;;;3.38;;
53411;SDS011;39307;52.870;13.660;2023-06-14T10:56:28;10.32;;;3.55;;
53411;SDS011;39307;52.870;13.660;2023-06-14T10:58:56;8.68;;;3.55;;
53411;SDS011;39307;52.870;13.660;2023-06-14T11:04:19;8.63;;;3.07;;
53411;SDS011;39307;52.870;13.660;2023-06-14T11:06:47;7.95;;;3.20;;
53411;SDS011;39307;52.870;13.660;2023-06-14T11:09:20;7.28;;;3.00;;
53411;SDS011;39307;52.870;13.660;2023-06-14T11:12:02;9.90;;;3.25;;
53411;SDS011;39307;52.870;13.660;2023-06-14T11:14:32;6.85;;;3.10;;
53411;SDS011;39307;52.870;13.660;2023-06-14T11:16:59;6.75;;;2.65;;
53411;SDS011;39307;52.870;13.660;2023-06-14T11:19:25;7.68;;;2.97;;
53411;SDS011;39307;52.870;13.660;2023-06-14T11:21:51;7.97;;;2.92;;
53411;SDS011;39307;52.870;13.660;2023-06-14T11:24:19;8.20;;;2.88;;
53411;SDS011;39307;52.870;13.660;2023-06-14T11:26:46;9.18;;;3.20;;
53411;SDS011;39307;52.870;13.660;2023-06-14T11:29:14;10.15;;;3.45;;
53411;SDS011;39307;52.870;13.660;2023-06-14T11:31:44;7.40;;;3.20;;
53411;SDS011;39307;52.870;13.660;2023-06-14T11:34:12;6.10;;;2.95;;
53411;SDS011;39307;52.870;13.660;2023-06-14T11:36:38;8.00;;;2.60;;
53411;SDS011;39307;52.870;13.660;2023-06-14T11:39:06;5.47;;;2.88;;
53411;SDS011;39307;52.870;13.660;2023-06-14T11:41:34;7.30;;;3.00;;
53411;SDS011;39307;52.870;13.660;2023-06-14T11:44:10;10.55;;;3.03;;
53411;SDS011;39307;52.870;13.660;2023-06-14T11:46:37;6.50;;;2.80;;
53411;SDS011;39307;52.870;13.660;2023-06-14T11:49:04;7.80;;;2.50;;
53411;SDS011;39307;52.870;13.660;2023-06-14T11:51:30;8.02;;;2.83;;
53411;SDS011;39307;52.870;13.660;2023-06-14T11:53:58;9.73;;;2.80;;
53411;SDS011;39307;52.870;13.660;2023-06-14T11:56:24;8.00;;;2.85;;
53411;SDS011;39307;52.870;13.660;2023-06-14T11:58:52;9.65;;;2.70;;
53411;SDS011;39307;52.870;13.660;2023-06-14T12:01:18;5.15;;;2.67;;
53411;SDS011;39307;52.870;13.660;2023-06-14T12:03:48;8.00;;;2.83;;
53411;SDS011;39307;52.870;13.660;2023-06-14T12:06:15;7.22;;;2.80;;
53411;SDS011;39307;52.870;13.660;2023-06-14T12:08:51;6.90;;;2.60;;
53411;SDS011;39307;52.870;13.660;2023-06-14T12:11:21;7.43;;;2.75;;
53411;SDS011;39307;52.870;13.660;2023-06-14T12:13:48;7.03;;;2.58;;
53411;SDS011;39307;52.870;13.660;2023-06-14T12:16:14;6.03;;;2.60;;
53411;SDS011;39307;52.870;13.660;2023-06-14T12:18:41;5.90;;;2.83;;
53411;SDS011;39307;52.870;13.660;2023-06-14T12:21:07;7.30;;;3.10;;
53411;SDS011;39307;52.870;13.660;2023-06-14T12:23:47;8.97;;;2.67;;
53411;SDS011;39307;52.870;13.660;2023-06-14T12:26:15;7.47;;;2.60;;
53411;SDS011;39307;52.870;13.660;2023-06-14T12:28:43;7.87;;;2.90;;
53411;SDS011;39307;52.870;13.660;2023-06-14T12:31:11;7.87;;;2.60;;
53411;SDS011;39307;52.870;13.660;2023-06-14T12:33:39;6.32;;;2.55;;
53411;SDS011;39307;52.870;13.660;2023-06-14T12:36:06;6.13;;;2.72;;
53411;SDS011;39307;52.870;13.660;2023-06-14T12:38:33;6.15;;;2.60;;
53411;SDS011;39307;52.870;13.660;2023-06-14T12:41:00;8.32;;;2.50;;
53411;SDS011;39307;52.870;13.660;2023-06-14T12:43:26;5.80;;;2.65;;
53411;SDS011;39307;52.870;13.660;2023-06-14T12:45:53;5.70;;;2.42;;
53411;SDS011;39307;52.870;13.660;2023-06-14T12:48:19;8.93;;;2.73;;
53411;SDS011;39307;52.870;13.660;2023-06-14T12:50:46;8.27;;;2.42;;
53411;SDS011;39307;52.870;13.660;2023-06-14T12:53:13;7.10;;;2.67;;
53411;SDS011;39307;52.870;13.660;2023-06-14T12:55:39;7.53;;;2.73;;
53411;SDS011;39307;52.870;13.660;2023-06-14T12:58:06;7.13;;;2.90;;
53411;SDS011;39307;52.870;13.660;2023-06-14T13:00:32;6.47;;;2.60;;
53411;SDS011;39307;52.870;13.660;2023-06-14T13:02:58;6.45;;;2.53;;
53411;SDS011;39307;52.870;13.660;2023-06-14T13:05:24;5.20;;;2.57;;
53411;SDS011;39307;52.870;13.660;2023-06-14T13:07:51;8.77;;;3.05;;
53411;SDS011;39307;52.870;13.660;2023-06-14T13:10:18;6.18;;;2.58;;
53411;SDS011;39307;52.870;13.660;2023-06-14T13:12:44;7.45;;;2.75;;
53411;SDS011;39307;52.870;13.660;2023-06-14T13:15:10;5.45;;;2.60;;
53411;SDS011;39307;52.870;13.660;2023-06-14T13:17:37;7.93;;;2.92;;
53411;SDS011;39307;52.870;13.660;2023-06-14T13:20:03;6.47;;;2.90;;
53411;SDS011;39307;52.870;13.660;2023-06-14T13:22:33;6.83;;;2.70;;
53411;SDS011;39307;52.870;13.660;2023-06-14T13:25:00;8.38;;;2.97;;
53411;SDS011;39307;52.870;13.660;2023-06-14T13:27:26;7.63;;;3.05;;
53411;SDS011;39307;52.870;13.660;2023-06-14T13:29:53;4.80;;;2.60;;
53411;SDS011;39307;52.870;13.660;2023-06-14T13:32:23;9.65;;;2.80;;
53411;SDS011;39307;52.870;13.660;2023-06-14T13:34:49;7.73;;;2.60;;
53411;SDS011;39307;52.870;13.660;2023-06-14T13:37:16;6.18;;;2.83;;
53411;SDS011;39307;52.870;13.660;2023-06-14T13:39:42;6.80;;;2.75;;
53411;SDS011;39307;52.870;13.660;2023-06-14T13:42:09;7.50;;;2.90;;
53411;SDS011;39307;52.870;13.660;2023-06-14T13:44:35;6.03;;;2.72;;
53411;SDS011;39307;52.870;13.660;2023-06-14T13:47:01;9.57;;;2.90;;
53411;SDS011;39307;52.870;13.660;2023-06-14T13:49:27;8.18;;;3.00;;
53411;SDS011;39307;52.870;13.660;2023-06-14T13:51:53;8.15;;;2.95;;
53411;SDS011;39307;52.870;13.660;2023-06-14T13:54:20;6.90;;;3.10;;
53411;SDS011;39307;52.870;13.660;2023-06-14T13:56:46;7.57;;;3.03;;
53411;SDS011;39307;52.870;13.660;2023-06-14T13:59:12;5.60;;;2.70;;
53411;SDS011;39307;52.870;13.660;2023-06-14T14:01:39;7.50;;;2.88;;
53411;SDS011;39307;52.870;13.660;2023-06-14T14:04:05;7.25;;;2.78;;
53411;SDS011;39307;52.870;13.660;2023-06-14T14:06:31;7.57;;;2.90;;
53411;SDS011;39307;52.870;13.660;2023-06-14T14:08:58;6.05;;;2.67;;
53411;SDS011;39307;52.870;13.660;2023-06-14T14:11:24;7.90;;;2.80;;
53411;SDS011;39307;52.870;13.660;2023-06-14T14:13:51;7.05;;;2.92;;
53411;SDS011;39307;52.870;13.660;2023-06-14T14:16:17;7.28;;;2.83;;
53411;SDS011;39307;52.870;13.660;2023-06-14T14:18:43;8.53;;;3.07;;
53411;SDS011;39307;52.870;13.660;2023-06-14T14:21:10;8.07;;;2.60;;
53411;SDS011;39307;52.870;13.660;2023-06-14T14:23:36;5.53;;;2.55;;
53411;SDS011;39307;52.870;13.660;2023-06-14T14:26:02;6.38;;;3.03;;
53411;SDS011;39307;52.870;13.660;2023-06-14T14:28:29;8.65;;;2.95;;
53411;SDS011;39307;52.870;13.660;2023-06-14T14:30:55;8.32;;;2.60;;
53411;SDS011;39307;52.870;13.660;2023-06-14T14:33:21;9.95;;;2.78;;
53411;SDS011;39307;52.870;13.660;2023-06-14T14:35:48;5.78;;;2.85;;
53411;SDS011;39307;52.870;13.660;2023-06-14T14:38:14;8.63;;;3.28;;
53411;SDS011;39307;52.870;13.660;2023-06-14T14:40:41;7.40;;;3.00;;
53411;SDS011;39307;52.870;13.660;2023-06-14T14:43:13;8.48;;;2.58;;